sensor_id;sensor_type;location;lat;lon;timestamp;pressure;altitude;pressure_sealevel;temperature;humidity
49709;BME280;35601;55.902;13.606;2023-09-18T00:02:00;100857.57;;;12.74;94.96
49709;BME280;35601;55.902;13.606;2023-09-18T00:04:25;100843.95;;;12.41;95.33
49709;BME280;35601;55.902;13.606;2023-09-18T00:06:50;100843.72;;;13.07;93.69
49709;BME280;35601;55.902;13.606;2023-09-18T00:09:15;100834.48;;;13.10;92.56
49709;BME280;35601;55.902;13.606;2023-09-18T00:11:41;100845.88;;;12.74;91.61
49709;BME280;35601;55.902;13.606;2023-09-18T00:14:07;100835.45;;;12.56;92.89
49709;BME280;35601;55.902;13.606;2023-09-18T00:16:31;100837.69;;;12.65;93.98
49709;BME280;35601;55.902;13.606;2023-09-18T00:18:57;100828.88;;;12.72;94.49
49709;BME280;35601;55.902;13.606;2023-09-18T00:21:22;100825.72;;;12.82;93.28
49709;BME280;35601;55.902;13.606;2023-09-18T00:23:47;100829.36;;;12.79;93.57
49709;BME280;35601;55.902;13.606;2023-09-18T00:26:12;100825.40;;;12.83;94.21
49709;BME280;35601;55.902;13.606;2023-09-18T00:28:38;100834.27;;;12.91;93.15
49709;BME280;35601;55.902;13.606;2023-09-18T00:31:03;100824.62;;;13.11;92.74
49709;BME280;35601;55.902;13.606;2023-09-18T00:33:28;100821.23;;;12.99;93.13
49709;BME280;35601;55.902;13.606;2023-09-18T00:35:53;100820.22;;;11.98;95.66
49709;BME280;35601;55.902;13.606;2023-09-18T00:38:18;100818.89;;;12.90;94.69
49709;BME280;35601;55.902;13.606;2023-09-18T00:40:43;100826.45;;;12.78;93.44
49709;BME280;35601;55.902;13.606;2023-09-18T00:43:09;100821.66;;;12.94;92.93
49709;BME280;35601;55.902;13.606;2023-09-18T00:45:34;100818.88;;;13.10;91.48
49709;BME280;35601;55.902;13.606;2023-09-18T00:47:59;100810.82;;;13.13;90.41
49709;BME280;35601;55.902;13.606;2023-09-18T00:50:24;100808.94;;;12.87;91.13
49709;BME280;35601;55.902;13.606;2023-09-18T00:52:49;100809.11;;;13.18;90.24
49709;BME280;35601;55.902;13.606;2023-09-18T00:55:14;100807.48;;;13.19;90.57
49709;BME280;35601;55.902;13.606;2023-09-18T00:57:40;100803.87;;;13.05;90.50
49709;BME280;35601;55.902;13.606;2023-09-18T01:00:06;100794.69;;;13.06;91.54
49709;BME280;35601;55.902;13.606;2023-09-18T01:02:30;100790.51;;;13.01;91.30
49709;BME280;35601;55.902;13.606;2023-09-18T01:04:56;100788.19;;;13.12;91.55
49709;BME280;35601;55.902;13.606;2023-09-18T01:07:21;100786.31;;;12.63;93.45
49709;BME280;35601;55.902;13.606;2023-09-18T01:09:47;100781.28;;;13.24;93.64
49709;BME280;35601;55.902;13.606;2023-09-18T01:12:18;100776.18;;;13.23;93.32
49709;BME280;35601;55.902;13.606;2023-09-18T01:14:40;100773.90;;;13.20;93.05
49709;BME280;35601;55.902;13.606;2023-09-18T01:17:03;100771.46;;;13.29;92.76
49709;BME280;35601;55.902;13.606;2023-09-18T01:19:37;100761.06;;;13.02;92.63
49709;BME280;35601;55.902;13.606;2023-09-18T01:21:53;100758.04;;;13.08;92.68
49709;BME280;35601;55.902;13.606;2023-09-18T01:24:18;100746.02;;;13.43;93.96
49709;BME280;35601;55.902;13.606;2023-09-18T01:26:43;100728.12;;;12.97;94.78
49709;BME280;35601;55.902;13.606;2023-09-18T01:29:08;100726.38;;;13.09;94.76
49709;BME280;35601;55.902;13.606;2023-09-18T01:31:33;100717.00;;;13.32;94.60
49709;BME280;35601;55.902;13.606;2023-09-18T01:33:58;100731.35;;;13.25;93.24
49709;BME280;35601;55.902;13.606;2023-09-18T01:36:24;100725.74;;;12.96;94.09
49709;BME280;35601;55.902;13.606;2023-09-18T01:38:50;100729.01;;;13.32;92.98
49709;BME280;35601;55.902;13.606;2023-09-18T01:41:15;100727.22;;;13.54;92.02
49709;BME280;35601;55.902;13.606;2023-09-18T01:43:40;100725.02;;;13.80;90.69
49709;BME280;35601;55.902;13.606;2023-09-18T01:46:06;100730.17;;;13.94;90.43
49709;BME280;35601;55.902;13.606;2023-09-18T01:48:31;100727.25;;;13.33;92.55
49709;BME280;35601;55.902;13.606;2023-09-18T01:50:57;100733.97;;;13.35;93.09
49709;BME280;35601;55.902;13.606;2023-09-18T01:53:22;100735.44;;;13.83;91.03
49709;BME280;35601;55.902;13.606;2023-09-18T01:55:47;100741.67;;;13.82;91.07
49709;BME280;35601;55.902;13.606;2023-09-18T01:58:12;100745.79;;;13.27;92.91
49709;BME280;35601;55.902;13.606;2023-09-18T02:00:37;100748.23;;;13.39;93.21
49709;BME280;35601;55.902;13.606;2023-09-18T02:03:03;100748.33;;;13.93;91.17
49709;BME280;35601;55.902;13.606;2023-09-18T02:05:27;100751.81;;;14.12;90.39
49709;BME280;35601;55.902;13.606;2023-09-18T02:07:53;100749.16;;;13.45;90.54
49709;BME280;35601;55.902;13.606;2023-09-18T02:10:18;100757.31;;;13.45;92.91
49709;BME280;35601;55.902;13.606;2023-09-18T02:12:44;100754.18;;;13.80;92.15
49709;BME280;35601;55.902;13.606;2023-09-18T02:15:09;100754.01;;;14.28;89.97
49709;BME280;35601;55.902;13.606;2023-09-18T02:17:34;100740.72;;;13.74;90.20
49709;BME280;35601;55.902;13.606;2023-09-18T02:20:00;100718.92;;;13.90;90.05
49709;BME280;35601;55.902;13.606;2023-09-18T02:22:25;100707.96;;;13.82;90.59
49709;BME280;35601;55.902;13.606;2023-09-18T02:24:50;100689.86;;;13.48;92.30
49709;BME280;35601;55.902;13.606;2023-09-18T02:27:15;100689.53;;;13.23;93.35
49709;BME280;35601;55.902;13.606;2023-09-18T02:29:40;100683.65;;;13.42;92.61
49709;BME280;35601;55.902;13.606;2023-09-18T02:32:05;100679.81;;;13.40;92.58
49709;BME280;35601;55.902;13.606;2023-09-18T02:34:30;100692.67;;;13.34;93.21
49709;BME280;35601;55.902;13.606;2023-09-18T02:36:56;100695.92;;;13.48;92.66
49709;BME280;35601;55.902;13.606;2023-09-18T02:39:21;100695.43;;;13.73;91.84
49709;BME280;35601;55.902;13.606;2023-09-18T02:41:46;100693.06;;;14.02;90.72
49709;BME280;35601;55.902;13.606;2023-09-18T02:44:11;100692.98;;;14.07;91.14
49709;BME280;35601;55.902;13.606;2023-09-18T02:46:37;100693.25;;;13.58;92.69
49709;BME280;35601;55.902;13.606;2023-09-18T02:49:02;100693.31;;;13.96;91.13
49709;BME280;35601;55.902;13.606;2023-09-18T02:51:27;100697.85;;;14.12;91.59
49709;BME280;35601;55.902;13.606;2023-09-18T02:53:52;100694.72;;;13.94;91.35
49709;BME280;35601;55.902;13.606;2023-09-18T02:56:17;100708.66;;;13.54;93.23
49709;BME280;35601;55.902;13.606;2023-09-18T02:58:42;100702.21;;;14.08;91.90
49709;BME280;35601;55.902;13.606;2023-09-18T03:01:07;100702.58;;;14.04;92.04
49709;BME280;35601;55.902;13.606;2023-09-18T03:03:33;100697.40;;;13.55;93.56
49709;BME280;35601;55.902;13.606;2023-09-18T03:06:01;100699.47;;;13.44;92.55
49709;BME280;35601;55.902;13.606;2023-09-18T03:08:23;100698.84;;;14.01;92.76
49709;BME280;35601;55.902;13.606;2023-09-18T03:10:48;100697.12;;;14.00;92.88
49709;BME280;35601;55.902;13.606;2023-09-18T03:13:14;100689.49;;;13.63;94.59
49709;BME280;35601;55.902;13.606;2023-09-18T03:15:39;100678.98;;;14.06;93.37
49709;BME280;35601;55.902;13.606;2023-09-18T03:18:05;100681.30;;;13.80;92.88
49709;BME280;35601;55.902;13.606;2023-09-18T03:20:29;100680.92;;;13.53;92.98
49709;BME280;35601;55.902;13.606;2023-09-18T03:22:56;100680.44;;;13.97;91.02
49709;BME280;35601;55.902;13.606;2023-09-18T03:25:20;100680.21;;;13.67;92.24
49709;BME280;35601;55.902;13.606;2023-09-18T03:27:45;100684.09;;;13.92;91.03
49709;BME280;35601;55.902;13.606;2023-09-18T03:30:11;100672.47;;;13.43;94.42
49709;BME280;35601;55.902;13.606;2023-09-18T03:32:36;100668.66;;;13.87;93.45
49709;BME280;35601;55.902;13.606;2023-09-18T03:35:01;100670.70;;;13.33;94.83
49709;BME280;35601;55.902;13.606;2023-09-18T03:37:26;100673.90;;;13.27;96.50
49709;BME280;35601;55.902;13.606;2023-09-18T03:39:52;100669.67;;;12.40;94.65
49709;BME280;35601;55.902;13.606;2023-09-18T03:42:17;100663.99;;;13.70;93.26
49709;BME280;35601;55.902;13.606;2023-09-18T03:44:42;100663.73;;;13.52;94.44
49709;BME280;35601;55.902;13.606;2023-09-18T03:47:07;100658.40;;;13.73;93.83
49709;BME280;35601;55.902;13.606;2023-09-18T03:49:33;100654.43;;;13.48;94.67
49709;BME280;35601;55.902;13.606;2023-09-18T03:51:58;100646.42;;;13.80;94.22
49709;BME280;35601;55.902;13.606;2023-09-18T03:54:23;100645.91;;;13.25;95.58
49709;BME280;35601;55.902;13.606;2023-09-18T03:56:49;100640.58;;;13.45;95.97
49709;BME280;35601;55.902;13.606;2023-09-18T03:59:14;100631.33;;;13.72;95.07
49709;BME280;35601;55.902;13.606;2023-09-18T04:01:39;100633.03;;;13.85;94.63
49709;BME280;35601;55.902;13.606;2023-09-18T04:04:04;100618.82;;;13.73;93.00
49709;BME280;35601;55.902;13.606;2023-09-18T04:06:36;100619.72;;;13.86;94.57
49709;BME280;35601;55.902;13.606;2023-09-18T04:08:54;100617.79;;;13.57;96.10
49709;BME280;35601;55.902;13.606;2023-09-18T04:11:20;100605.31;;;13.58;96.83
49709;BME280;35601;55.902;13.606;2023-09-18T04:13:45;100593.41;;;13.94;95.92
49709;BME280;35601;55.902;13.606;2023-09-18T04:16:11;100589.12;;;12.15;99.32
49709;BME280;35601;55.902;13.606;2023-09-18T04:18:36;100587.43;;;13.19;99.44
49709;BME280;35601;55.902;13.606;2023-09-18T04:21:01;100573.23;;;13.37;99.31
49709;BME280;35601;55.902;13.606;2023-09-18T04:23:27;100561.87;;;13.49;99.56
49709;BME280;35601;55.902;13.606;2023-09-18T04:25:52;100563.87;;;13.36;100.00
49709;BME280;35601;55.902;13.606;2023-09-18T04:28:18;100563.09;;;13.09;100.00
49709;BME280;35601;55.902;13.606;2023-09-18T04:30:42;100559.94;;;13.04;100.00
49709;BME280;35601;55.902;13.606;2023-09-18T04:33:07;100558.03;;;13.09;100.00
49709;BME280;35601;55.902;13.606;2023-09-18T04:35:32;100546.60;;;13.35;100.00
49709;BME280;35601;55.902;13.606;2023-09-18T04:37:58;100550.74;;;13.36;100.00
49709;BME280;35601;55.902;13.606;2023-09-18T04:40:23;100551.84;;;12.84;100.00
49709;BME280;35601;55.902;13.606;2023-09-18T04:42:49;100549.77;;;12.88;100.00
49709;BME280;35601;55.902;13.606;2023-09-18T04:45:14;100548.96;;;12.94;100.00
49709;BME280;35601;55.902;13.606;2023-09-18T04:47:39;100542.74;;;12.96;100.00
49709;BME280;35601;55.902;13.606;2023-09-18T04:50:05;100529.09;;;13.40;100.00
49709;BME280;35601;55.902;13.606;2023-09-18T04:52:29;100523.27;;;12.88;100.00
49709;BME280;35601;55.902;13.606;2023-09-18T04:54:54;100528.40;;;13.36;100.00
49709;BME280;35601;55.902;13.606;2023-09-18T04:57:19;100524.59;;;13.13;100.00
49709;BME280;35601;55.902;13.606;2023-09-18T04:59:44;100528.36;;;13.06;100.00
49709;BME280;35601;55.902;13.606;2023-09-18T05:02:10;100517.99;;;13.33;100.00
49709;BME280;35601;55.902;13.606;2023-09-18T05:04:35;100521.98;;;13.39;100.00
49709;BME280;35601;55.902;13.606;2023-09-18T05:07:01;100511.50;;;13.31;100.00
49709;BME280;35601;55.902;13.606;2023-09-18T05:09:26;100518.08;;;13.10;100.00
49709;BME280;35601;55.902;13.606;2023-09-18T05:11:51;100510.94;;;13.17;100.00
49709;BME280;35601;55.902;13.606;2023-09-18T05:14:17;100512.45;;;13.33;100.00
49709;BME280;35601;55.902;13.606;2023-09-18T05:16:42;100503.90;;;13.34;100.00
49709;BME280;35601;55.902;13.606;2023-09-18T05:19:07;100497.75;;;13.29;100.00
49709;BME280;35601;55.902;13.606;2023-09-18T05:21:33;100497.19;;;13.39;100.00
49709;BME280;35601;55.902;13.606;2023-09-18T05:23:58;100490.11;;;13.41;100.00
49709;BME280;35601;55.902;13.606;2023-09-18T05:26:23;100493.04;;;13.80;98.77
49709;BME280;35601;55.902;13.606;2023-09-18T05:28:49;100475.73;;;13.62;99.41
49709;BME280;35601;55.902;13.606;2023-09-18T05:31:14;100474.54;;;13.60;99.63
49709;BME280;35601;55.902;13.606;2023-09-18T05:33:39;100477.35;;;13.09;100.00
49709;BME280;35601;55.902;13.606;2023-09-18T05:36:04;100475.43;;;13.03;100.00
49709;BME280;35601;55.902;13.606;2023-09-18T05:38:30;100478.11;;;13.36;100.00
49709;BME280;35601;55.902;13.606;2023-09-18T05:40:56;100482.95;;;13.21;100.00
49709;BME280;35601;55.902;13.606;2023-09-18T05:43:21;100474.92;;;13.43;100.00
49709;BME280;35601;55.902;13.606;2023-09-18T05:45:46;100474.19;;;13.39;100.00
49709;BME280;35601;55.902;13.606;2023-09-18T05:48:12;100470.78;;;13.29;100.00
49709;BME280;35601;55.902;13.606;2023-09-18T05:50:38;100470.09;;;13.45;100.00
49709;BME280;35601;55.902;13.606;2023-09-18T05:53:03;100473.31;;;12.88;100.00
49709;BME280;35601;55.902;13.606;2023-09-18T05:55:28;100473.69;;;13.42;100.00
49709;BME280;35601;55.902;13.606;2023-09-18T05:57:54;100466.33;;;13.60;100.00
49709;BME280;35601;55.902;13.606;2023-09-18T06:00:19;100459.53;;;12.93;100.00
49709;BME280;35601;55.902;13.606;2023-09-18T06:02:44;100456.78;;;13.51;100.00
49709;BME280;35601;55.902;13.606;2023-09-18T06:05:10;100443.77;;;13.10;100.00
49709;BME280;35601;55.902;13.606;2023-09-18T06:07:35;100438.49;;;13.19;100.00
49709;BME280;35601;55.902;13.606;2023-09-18T06:10:00;100428.41;;;12.91;100.00
49709;BME280;35601;55.902;13.606;2023-09-18T06:12:25;100418.13;;;13.51;100.00
49709;BME280;35601;55.902;13.606;2023-09-18T06:14:51;100417.60;;;13.79;100.00
49709;BME280;35601;55.902;13.606;2023-09-18T06:17:17;100411.35;;;13.19;100.00
49709;BME280;35601;55.902;13.606;2023-09-18T06:19:42;100421.08;;;13.25;100.00
49709;BME280;35601;55.902;13.606;2023-09-18T06:22:07;100405.95;;;13.59;100.00
49709;BME280;35601;55.902;13.606;2023-09-18T06:24:32;100394.85;;;13.25;100.00
49709;BME280;35601;55.902;13.606;2023-09-18T06:26:58;100386.71;;;13.45;100.00
49709;BME280;35601;55.902;13.606;2023-09-18T06:29:24;100379.67;;;13.44;100.00
49709;BME280;35601;55.902;13.606;2023-09-18T06:31:49;100373.46;;;13.54;100.00
49709;BME280;35601;55.902;13.606;2023-09-18T06:34:14;100362.31;;;13.23;100.00
49709;BME280;35601;55.902;13.606;2023-09-18T06:36:40;100361.88;;;13.55;100.00
49709;BME280;35601;55.902;13.606;2023-09-18T06:39:06;100368.60;;;13.81;100.00
49709;BME280;35601;55.902;13.606;2023-09-18T06:41:31;100360.27;;;13.52;100.00
49709;BME280;35601;55.902;13.606;2023-09-18T06:43:57;100354.21;;;13.31;100.00
49709;BME280;35601;55.902;13.606;2023-09-18T06:46:23;100366.12;;;13.17;100.00
49709;BME280;35601;55.902;13.606;2023-09-18T06:48:48;100362.96;;;13.94;100.00
49709;BME280;35601;55.902;13.606;2023-09-18T06:51:13;100367.72;;;13.52;100.00
49709;BME280;35601;55.902;13.606;2023-09-18T06:53:39;100362.71;;;13.67;100.00
49709;BME280;35601;55.902;13.606;2023-09-18T06:56:04;100357.21;;;14.23;100.00
49709;BME280;35601;55.902;13.606;2023-09-18T06:58:30;100352.47;;;13.97;100.00
49709;BME280;35601;55.902;13.606;2023-09-18T07:00:55;100342.72;;;13.68;100.00
49709;BME280;35601;55.902;13.606;2023-09-18T07:03:21;100342.38;;;13.80;100.00
49709;BME280;35601;55.902;13.606;2023-09-18T07:05:47;100343.38;;;13.69;100.00
49709;BME280;35601;55.902;13.606;2023-09-18T07:08:12;100354.88;;;14.28;100.00
49709;BME280;35601;55.902;13.606;2023-09-18T07:10:38;100333.90;;;13.89;100.00
49709;BME280;35601;55.902;13.606;2023-09-18T07:13:03;100330.73;;;14.18;100.00
49709;BME280;35601;55.902;13.606;2023-09-18T07:15:29;100327.46;;;14.15;100.00
49709;BME280;35601;55.902;13.606;2023-09-18T07:17:55;100319.89;;;13.97;100.00
49709;BME280;35601;55.902;13.606;2023-09-18T07:20:20;100315.79;;;14.03;100.00
49709;BME280;35601;55.902;13.606;2023-09-18T07:22:47;100319.52;;;14.41;100.00
49709;BME280;35601;55.902;13.606;2023-09-18T07:25:11;100318.09;;;14.20;100.00
49709;BME280;35601;55.902;13.606;2023-09-18T07:27:36;100318.86;;;14.39;100.00
49709;BME280;35601;55.902;13.606;2023-09-18T07:30:02;100313.85;;;14.10;100.00
49709;BME280;35601;55.902;13.606;2023-09-18T07:32:27;100305.72;;;13.99;100.00
49709;BME280;35601;55.902;13.606;2023-09-18T07:34:52;100301.61;;;14.30;100.00
49709;BME280;35601;55.902;13.606;2023-09-18T07:37:18;100308.00;;;14.70;100.00
49709;BME280;35601;55.902;13.606;2023-09-18T07:39:43;100304.95;;;14.48;100.00
49709;BME280;35601;55.902;13.606;2023-09-18T07:42:08;100303.27;;;14.29;100.00
49709;BME280;35601;55.902;13.606;2023-09-18T07:44:34;100293.59;;;14.40;100.00
49709;BME280;35601;55.902;13.606;2023-09-18T07:46:59;100297.09;;;15.00;100.00
49709;BME280;35601;55.902;13.606;2023-09-18T07:49:24;100292.03;;;14.88;100.00
49709;BME280;35601;55.902;13.606;2023-09-18T07:51:49;100288.15;;;15.21;100.00
49709;BME280;35601;55.902;13.606;2023-09-18T07:54:15;100285.38;;;15.00;100.00
49709;BME280;35601;55.902;13.606;2023-09-18T07:56:40;100276.48;;;15.32;99.74
49709;BME280;35601;55.902;13.606;2023-09-18T07:59:05;100274.12;;;14.90;100.00
49709;BME280;35601;55.902;13.606;2023-09-18T08:01:31;100274.62;;;15.07;100.00
49709;BME280;35601;55.902;13.606;2023-09-18T08:03:56;100275.36;;;15.10;100.00
49709;BME280;35601;55.902;13.606;2023-09-18T08:06:22;100272.28;;;14.89;100.00
49709;BME280;35601;55.902;13.606;2023-09-18T08:08:47;100267.50;;;15.39;98.71
49709;BME280;35601;55.902;13.606;2023-09-18T08:11:12;100264.48;;;15.36;98.91
49709;BME280;35601;55.902;13.606;2023-09-18T08:13:38;100270.14;;;15.31;100.00
49709;BME280;35601;55.902;13.606;2023-09-18T08:16:05;100260.72;;;14.77;100.00
49709;BME280;35601;55.902;13.606;2023-09-18T08:18:29;100264.90;;;15.37;100.00
49709;BME280;35601;55.902;13.606;2023-09-18T08:20:54;100259.75;;;15.73;98.29
49709;BME280;35601;55.902;13.606;2023-09-18T08:23:19;100254.24;;;15.84;97.04
49709;BME280;35601;55.902;13.606;2023-09-18T08:25:44;100258.89;;;15.70;96.28
49709;BME280;35601;55.902;13.606;2023-09-18T08:28:10;100257.30;;;16.22;94.91
49709;BME280;35601;55.902;13.606;2023-09-18T08:30:36;100260.48;;;16.11;94.32
49709;BME280;35601;55.902;13.606;2023-09-18T08:33:01;100269.36;;;16.48;93.37
49709;BME280;35601;55.902;13.606;2023-09-18T08:35:26;100259.58;;;15.92;94.35
49709;BME280;35601;55.902;13.606;2023-09-18T08:37:52;100260.59;;;16.29;94.50
49709;BME280;35601;55.902;13.606;2023-09-18T08:40:17;100260.03;;;16.13;93.55
49709;BME280;35601;55.902;13.606;2023-09-18T08:42:46;100263.43;;;16.17;94.15
49709;BME280;35601;55.902;13.606;2023-09-18T08:45:08;100264.83;;;16.39;93.36
49709;BME280;35601;55.902;13.606;2023-09-18T08:47:34;100256.63;;;15.89;94.74
49709;BME280;35601;55.902;13.606;2023-09-18T08:49:59;100250.28;;;16.29;94.82
49709;BME280;35601;55.902;13.606;2023-09-18T08:52:25;100248.61;;;16.72;92.37
49709;BME280;35601;55.902;13.606;2023-09-18T08:54:51;100244.40;;;16.18;94.42
49709;BME280;35601;55.902;13.606;2023-09-18T08:57:15;100239.02;;;16.04;94.22
49709;BME280;35601;55.902;13.606;2023-09-18T08:59:41;100233.24;;;16.51;92.48
49709;BME280;35601;55.902;13.606;2023-09-18T09:02:07;100247.73;;;16.05;93.45
49709;BME280;35601;55.902;13.606;2023-09-18T09:04:31;100244.77;;;16.89;91.58
49709;BME280;35601;55.902;13.606;2023-09-18T09:06:57;100237.49;;;16.85;91.27
49709;BME280;35601;55.902;13.606;2023-09-18T09:09:22;100232.17;;;16.72;89.85
49709;BME280;35601;55.902;13.606;2023-09-18T09:11:49;100228.17;;;16.94;88.96
49709;BME280;35601;55.902;13.606;2023-09-18T09:14:14;100222.56;;;17.06;89.21
49709;BME280;35601;55.902;13.606;2023-09-18T09:16:39;100213.16;;;17.05;88.84
49709;BME280;35601;55.902;13.606;2023-09-18T09:19:05;100219.17;;;17.08;88.47
49709;BME280;35601;55.902;13.606;2023-09-18T09:21:38;100214.71;;;16.74;89.05
49709;BME280;35601;55.902;13.606;2023-09-18T09:23:55;100202.34;;;16.43;90.62
49709;BME280;35601;55.902;13.606;2023-09-18T09:26:22;100179.98;;;16.99;89.73
49709;BME280;35601;55.902;13.606;2023-09-18T09:28:47;100172.48;;;16.84;89.49
49709;BME280;35601;55.902;13.606;2023-09-18T09:31:23;100166.29;;;17.10;87.92
49709;BME280;35601;55.902;13.606;2023-09-18T09:33:37;100166.37;;;17.21;88.25
49709;BME280;35601;55.902;13.606;2023-09-18T09:36:05;100159.09;;;17.39;87.00
49709;BME280;35601;55.902;13.606;2023-09-18T09:38:30;100156.11;;;17.38;86.82
49709;BME280;35601;55.902;13.606;2023-09-18T09:40:53;100148.96;;;17.75;86.00
49709;BME280;35601;55.902;13.606;2023-09-18T09:43:19;100136.77;;;18.09;84.46
49709;BME280;35601;55.902;13.606;2023-09-18T09:45:46;100130.23;;;18.00;83.53
49709;BME280;35601;55.902;13.606;2023-09-18T09:48:10;100121.31;;;18.34;82.13
49709;BME280;35601;55.902;13.606;2023-09-18T09:50:43;100118.73;;;18.40;81.54
49709;BME280;35601;55.902;13.606;2023-09-18T09:53:00;100106.04;;;18.92;79.33
49709;BME280;35601;55.902;13.606;2023-09-18T09:55:28;100101.85;;;18.59;78.22
49709;BME280;35601;55.902;13.606;2023-09-18T09:57:53;100096.59;;;18.28;78.56
49709;BME280;35601;55.902;13.606;2023-09-18T10:00:16;100092.52;;;18.66;77.44
49709;BME280;35601;55.902;13.606;2023-09-18T10:02:41;100094.71;;;19.01;78.02
49709;BME280;35601;55.902;13.606;2023-09-18T10:05:07;100096.77;;;18.64;77.07
49709;BME280;35601;55.902;13.606;2023-09-18T10:07:32;100092.88;;;18.93;77.99
49709;BME280;35601;55.902;13.606;2023-09-18T10:09:58;100089.75;;;18.61;77.60
49709;BME280;35601;55.902;13.606;2023-09-18T10:12:24;100093.30;;;18.91;77.68
49709;BME280;35601;55.902;13.606;2023-09-18T10:14:51;100078.07;;;19.01;76.65
49709;BME280;35601;55.902;13.606;2023-09-18T10:17:16;100078.83;;;19.21;77.60
49709;BME280;35601;55.902;13.606;2023-09-18T10:19:45;100077.57;;;19.06;76.57
49709;BME280;35601;55.902;13.606;2023-09-18T10:22:08;100076.81;;;19.42;76.21
49709;BME280;35601;55.902;13.606;2023-09-18T10:24:34;100087.41;;;19.53;75.38
49709;BME280;35601;55.902;13.606;2023-09-18T10:26:58;100091.06;;;19.55;75.18
49709;BME280;35601;55.902;13.606;2023-09-18T10:29:23;100093.35;;;19.49;75.06
49709;BME280;35601;55.902;13.606;2023-09-18T10:31:48;100091.70;;;19.61;73.56
49709;BME280;35601;55.902;13.606;2023-09-18T10:34:13;100101.63;;;19.86;73.70
49709;BME280;35601;55.902;13.606;2023-09-18T10:36:38;100088.70;;;19.65;72.02
49709;BME280;35601;55.902;13.606;2023-09-18T10:39:03;100087.67;;;20.50;70.81
49709;BME280;35601;55.902;13.606;2023-09-18T10:41:28;100078.13;;;20.32;70.89
49709;BME280;35601;55.902;13.606;2023-09-18T10:43:54;100080.58;;;20.22;69.90
49709;BME280;35601;55.902;13.606;2023-09-18T10:46:18;100072.91;;;19.84;70.99
49709;BME280;35601;55.902;13.606;2023-09-18T10:48:44;100065.53;;;20.11;71.71
49709;BME280;35601;55.902;13.606;2023-09-18T10:51:10;100057.09;;;20.08;71.61
49709;BME280;35601;55.902;13.606;2023-09-18T10:53:34;100053.24;;;20.57;71.46
49709;BME280;35601;55.902;13.606;2023-09-18T10:56:01;100054.85;;;19.82;72.19
49709;BME280;35601;55.902;13.606;2023-09-18T10:58:25;100039.63;;;20.27;72.34
49709;BME280;35601;55.902;13.606;2023-09-18T11:00:50;100031.55;;;20.17;71.04
49709;BME280;35601;55.902;13.606;2023-09-18T11:03:17;100020.95;;;20.43;71.08
49709;BME280;35601;55.902;13.606;2023-09-18T11:05:41;100020.74;;;20.25;70.17
49709;BME280;35601;55.902;13.606;2023-09-18T11:10:31;100017.24;;;19.67;72.30
49709;BME280;35601;55.902;13.606;2023-09-18T11:13:05;100013.25;;;19.53;73.98
49709;BME280;35601;55.902;13.606;2023-09-18T11:15:26;100005.18;;;19.85;73.83
49709;BME280;35601;55.902;13.606;2023-09-18T11:17:58;99999.96;;;19.97;73.39
49709;BME280;35601;55.902;13.606;2023-09-18T11:20:17;100001.94;;;20.23;71.40
49709;BME280;35601;55.902;13.606;2023-09-18T11:22:39;99992.34;;;20.45;72.03
49709;BME280;35601;55.902;13.606;2023-09-18T11:29:54;99983.75;;;21.10;67.77
49709;BME280;35601;55.902;13.606;2023-09-18T11:34:46;99968.08;;;20.60;68.15
49709;BME280;35601;55.902;13.606;2023-09-18T11:37:19;99970.97;;;21.09;68.55
49709;BME280;35601;55.902;13.606;2023-09-18T11:39:37;99970.02;;;20.66;68.57
49709;BME280;35601;55.902;13.606;2023-09-18T11:42:08;99960.40;;;20.97;68.92
49709;BME280;35601;55.902;13.606;2023-09-18T11:44:33;99961.58;;;21.42;66.44
49709;BME280;35601;55.902;13.606;2023-09-18T11:46:53;99969.23;;;21.15;67.18
49709;BME280;35601;55.902;13.606;2023-09-18T11:49:25;99962.50;;;20.96;66.33
49709;BME280;35601;55.902;13.606;2023-09-18T11:51:44;99960.35;;;20.99;68.12
49709;BME280;35601;55.902;13.606;2023-09-18T11:54:10;99963.20;;;20.88;68.14
49709;BME280;35601;55.902;13.606;2023-09-18T11:56:36;99962.49;;;20.83;68.42
49709;BME280;35601;55.902;13.606;2023-09-18T11:59:01;99961.86;;;20.95;68.22
49709;BME280;35601;55.902;13.606;2023-09-18T12:01:26;99959.01;;;20.54;68.34
49709;BME280;35601;55.902;13.606;2023-09-18T12:03:53;99952.16;;;20.73;67.49
49709;BME280;35601;55.902;13.606;2023-09-18T12:06:17;99953.95;;;20.96;68.18
49709;BME280;35601;55.902;13.606;2023-09-18T12:08:42;99946.95;;;21.44;67.32
49709;BME280;35601;55.902;13.606;2023-09-18T12:11:08;99948.44;;;21.38;66.98
49709;BME280;35601;55.902;13.606;2023-09-18T12:13:34;99947.18;;;21.44;66.23
49709;BME280;35601;55.902;13.606;2023-09-18T12:15:59;99942.92;;;21.04;66.35
49709;BME280;35601;55.902;13.606;2023-09-18T12:18:24;99934.94;;;20.93;67.17
49709;BME280;35601;55.902;13.606;2023-09-18T12:20:50;99939.63;;;21.00;66.98
49709;BME280;35601;55.902;13.606;2023-09-18T12:23:16;99934.08;;;20.64;67.65
49709;BME280;35601;55.902;13.606;2023-09-18T12:25:44;99927.63;;;20.70;67.54
49709;BME280;35601;55.902;13.606;2023-09-18T12:28:07;99924.94;;;20.71;67.52
49709;BME280;35601;55.902;13.606;2023-09-18T12:30:33;99920.15;;;20.76;65.97
49709;BME280;35601;55.902;13.606;2023-09-18T12:32:58;99919.03;;;20.37;66.14
49709;BME280;35601;55.902;13.606;2023-09-18T12:35:23;99921.00;;;20.79;66.84
49709;BME280;35601;55.902;13.606;2023-09-18T12:37:47;99919.60;;;20.27;67.74